createdAt,value
2023-05-09T00:00:49.171Z,1014.45
2023-05-09T00:01:49.204Z,1014.40
2023-05-09T00:02:49.191Z,1014.42
2023-05-09T00:03:49.397Z,1014.41
2023-05-09T00:04:49.212Z,1014.39
2023-05-09T00:05:49.390Z,1014.40
2023-05-09T00:06:49.360Z,1014.40
2023-05-09T00:07:49.352Z,1014.39
2023-05-09T00:08:49.095Z,1014.35
2023-05-09T00:09:49.070Z,1014.33
2023-05-09T00:10:49.074Z,1014.34
2023-05-09T00:11:50.318Z,1014.31
2023-05-09T00:12:49.089Z,1014.28
2023-05-09T00:13:49.050Z,1014.27
2023-05-09T00:14:49.307Z,1014.25
2023-05-09T00:15:49.263Z,1014.28
2023-05-09T00:16:49.395Z,1014.23
2023-05-09T00:17:49.033Z,1014.25
2023-05-09T00:18:49.251Z,1014.23
2023-05-09T00:19:48.960Z,1014.23
2023-05-09T00:20:48.967Z,1014.21
2023-05-09T00:21:49.206Z,1014.24
2023-05-09T00:22:48.945Z,1014.26
2023-05-09T00:23:48.917Z,1014.16
2023-05-09T00:24:48.251Z,1014.19
2023-05-09T00:25:48.913Z,1014.15
2023-05-09T00:26:48.219Z,1014.10
2023-05-09T00:27:48.890Z,1014.12
2023-05-09T00:28:48.858Z,1014.10
2023-05-09T00:29:48.193Z,1014.09
2023-05-09T00:30:48.856Z,1014.07
2023-05-09T00:31:49.176Z,1014.11
2023-05-09T00:32:49.132Z,1014.07
2023-05-09T00:33:48.801Z,1014.10
2023-05-09T00:34:48.144Z,1014.09
2023-05-09T00:35:48.115Z,1014.06
2023-05-09T00:36:48.111Z,1014.05
2023-05-09T00:37:48.763Z,1014.04
2023-05-09T00:38:48.771Z,1014.08
2023-05-09T00:39:49.021Z,1014.04
2023-05-09T00:40:49.005Z,1014.04
2023-05-09T00:41:48.054Z,1014.02
2023-05-09T00:42:48.059Z,1014.00
2023-05-09T00:43:48.990Z,1014.00
2023-05-09T00:44:48.703Z,1014.00
2023-05-09T00:45:48.999Z,1014.01
2023-05-09T00:46:48.957Z,1013.96
2023-05-09T00:47:48.980Z,1013.97
2023-05-09T00:48:48.917Z,1013.97
2023-05-09T00:49:48.916Z,1013.98
2023-05-09T00:50:48.636Z,1013.90
2023-05-09T00:51:48.920Z,1013.91
2023-05-09T00:52:48.614Z,1013.89
2023-05-09T00:53:48.615Z,1013.91
2023-05-09T00:54:48.874Z,1013.87
2023-05-09T00:55:49.857Z,1013.84
2023-05-09T00:56:48.552Z,1013.83
2023-05-09T00:57:47.896Z,1013.82
2023-05-09T00:58:47.861Z,1013.76
2023-05-09T00:59:47.864Z,1013.72
2023-05-09T01:00:49.812Z,1013.72
2023-05-09T01:01:48.577Z,1013.67
2023-05-09T01:02:48.862Z,1013.70
2023-05-09T01:03:48.816Z,1013.62
2023-05-09T01:04:48.487Z,1013.66
2023-05-09T01:05:48.456Z,1013.64
2023-05-09T01:06:48.462Z,1013.65
2023-05-09T01:07:48.712Z,1013.64
2023-05-09T01:08:48.444Z,1013.54
2023-05-09T01:09:48.677Z,1013.56
2023-05-09T01:10:48.702Z,1013.58
2023-05-09T01:11:48.414Z,1013.55
2023-05-09T01:12:48.412Z,1013.53
2023-05-09T01:13:48.386Z,1013.54
2023-05-09T01:14:48.353Z,1013.54
2023-05-09T01:15:48.366Z,1013.52
2023-05-09T01:16:47.678Z,1013.51
2023-05-09T01:17:48.377Z,1013.50
2023-05-09T01:18:48.333Z,1013.50
2023-05-09T01:19:48.308Z,1013.48
2023-05-09T01:20:48.307Z,1013.49
2023-05-09T01:21:47.612Z,1013.50
2023-05-09T01:22:47.608Z,1013.47
2023-05-09T01:23:48.285Z,1013.47
2023-05-09T01:24:47.605Z,1013.44
2023-05-09T01:25:48.256Z,1013.45
2023-05-09T01:26:48.246Z,1013.42
2023-05-09T01:27:47.543Z,1013.40
2023-05-09T01:28:47.550Z,1013.39
2023-05-09T01:29:47.560Z,1013.44
2023-05-09T01:30:48.202Z,1013.34
2023-05-09T01:31:47.597Z,1013.37
2023-05-09T01:32:49.013Z,1013.33
2023-05-09T01:33:48.145Z,1013.28
2023-05-09T01:34:47.504Z,1013.30
2023-05-09T01:35:48.141Z,1013.32
2023-05-09T01:36:47.481Z,1013.30
2023-05-09T01:37:48.121Z,1013.27
2023-05-09T01:38:47.489Z,1013.24
2023-05-09T01:39:47.425Z,1013.23
2023-05-09T01:40:48.094Z,1013.24
2023-05-09T01:41:48.078Z,1013.25
2023-05-09T01:42:48.052Z,1013.21
2023-05-09T01:43:48.087Z,1013.21
2023-05-09T01:44:48.051Z,1013.21
2023-05-09T01:45:47.372Z,1013.20
2023-05-09T01:46:47.397Z,1013.21
2023-05-09T01:47:47.370Z,1013.19
2023-05-09T01:48:48.010Z,1013.22
2023-05-09T01:49:47.301Z,1013.21
2023-05-09T01:50:47.978Z,1013.26
2023-05-09T01:51:47.281Z,1013.24
2023-05-09T01:52:47.941Z,1013.26
2023-05-09T01:53:47.953Z,1013.24
2023-05-09T01:54:47.948Z,1013.23
2023-05-09T01:55:47.924Z,1013.24
2023-05-09T01:56:47.905Z,1013.19
2023-05-09T01:57:47.235Z,1013.19
2023-05-09T01:58:47.896Z,1013.18
2023-05-09T01:59:47.882Z,1013.17
2023-05-09T02:00:49.165Z,1013.14
2023-05-09T02:01:47.847Z,1013.12
2023-05-09T02:02:47.319Z,1013.12
2023-05-09T02:03:47.842Z,1013.11
2023-05-09T02:04:47.828Z,1013.12
2023-05-09T02:05:47.800Z,1013.14
2023-05-09T02:06:47.782Z,1013.12
2023-05-09T02:07:47.789Z,1013.10
2023-05-09T02:08:47.114Z,1013.08
2023-05-09T02:09:47.773Z,1013.08
2023-05-09T02:10:47.743Z,1013.08
2023-05-09T02:11:47.750Z,1013.05
2023-05-09T02:12:47.797Z,1013.08
2023-05-09T02:13:47.045Z,1013.07
2023-05-09T02:14:47.048Z,1013.11
2023-05-09T02:15:47.072Z,1013.08
2023-05-09T02:16:47.748Z,1013.08
2023-05-09T02:17:47.717Z,1013.09
2023-05-09T02:18:47.674Z,1013.11
2023-05-09T02:19:47.651Z,1013.07
2023-05-09T02:20:47.650Z,1013.07
2023-05-09T02:21:47.642Z,1013.02
2023-05-09T02:22:47.641Z,1013.06
2023-05-09T02:23:47.616Z,1013.02
2023-05-09T02:24:47.587Z,1013.02
2023-05-09T02:25:47.605Z,1013.02
2023-05-09T02:26:47.589Z,1013.00
2023-05-09T02:27:47.619Z,1013.00
2023-05-09T02:28:46.883Z,1013.00
2023-05-09T02:29:46.887Z,1013.03
2023-05-09T02:30:47.536Z,1013.00
2023-05-09T02:31:47.564Z,1013.00
2023-05-09T02:32:47.551Z,1012.98
2023-05-09T02:33:47.505Z,1012.96
2023-05-09T02:34:46.863Z,1012.92
2023-05-09T02:35:47.496Z,1012.96
2023-05-09T02:36:47.472Z,1012.92
2023-05-09T02:37:46.796Z,1012.95
2023-05-09T02:38:47.434Z,1012.90
2023-05-09T02:39:47.420Z,1012.93
2023-05-09T02:40:46.747Z,1012.93
2023-05-09T02:41:46.735Z,1012.91
2023-05-09T02:42:46.724Z,1012.89
2023-05-09T02:43:46.746Z,1012.93
2023-05-09T02:44:47.389Z,1012.90
2023-05-09T02:45:47.384Z,1012.89
2023-05-09T02:46:46.685Z,1012.87
2023-05-09T02:47:47.651Z,1012.89
2023-05-09T02:48:46.671Z,1012.88
2023-05-09T02:49:47.580Z,1012.86
2023-05-09T02:50:47.317Z,1012.86
2023-05-09T02:51:47.571Z,1012.83
2023-05-09T02:52:47.592Z,1012.85
2023-05-09T02:53:47.570Z,1012.81
2023-05-09T02:54:47.273Z,1012.82
2023-05-09T02:55:47.260Z,1012.85
2023-05-09T02:56:47.525Z,1012.79
2023-05-09T02:57:47.575Z,1012.77
2023-05-09T02:58:47.506Z,1012.77
2023-05-09T02:59:47.216Z,1012.80
2023-05-09T03:00:47.486Z,1012.75
2023-05-09T03:01:47.226Z,1012.76
2023-05-09T03:02:46.656Z,1012.76
2023-05-09T03:03:47.289Z,1012.79
2023-05-09T03:04:47.160Z,1012.78
2023-05-09T03:05:46.477Z,1012.80
2023-05-09T03:06:47.127Z,1012.78
2023-05-09T03:07:46.462Z,1012.78
2023-05-09T03:08:46.431Z,1012.79
2023-05-09T03:09:47.103Z,1012.72
2023-05-09T03:10:46.541Z,1012.74
2023-05-09T03:11:46.433Z,1012.76
2023-05-09T03:12:47.090Z,1012.70
2023-05-09T03:13:47.063Z,1012.73
2023-05-09T03:14:47.057Z,1012.69
2023-05-09T03:15:46.382Z,1012.71
2023-05-09T03:16:47.389Z,1012.73
2023-05-09T03:17:46.386Z,1012.79
2023-05-09T03:18:46.327Z,1012.73
2023-05-09T03:19:46.321Z,1012.75
2023-05-09T03:20:46.375Z,1012.73
2023-05-09T03:21:46.332Z,1012.71
2023-05-09T03:22:46.370Z,1012.72
2023-05-09T03:23:46.278Z,1012.69
2023-05-09T03:24:46.262Z,1012.68
2023-05-09T03:25:46.272Z,1012.69
2023-05-09T03:26:46.234Z,1012.63
2023-05-09T03:27:46.227Z,1012.66
2023-05-09T03:28:46.892Z,1012.68
2023-05-09T03:29:46.203Z,1012.64
2023-05-09T03:30:46.228Z,1012.64
2023-05-09T03:31:46.940Z,1012.62
2023-05-09T03:32:46.920Z,1012.59
2023-05-09T03:33:46.849Z,1012.60
2023-05-09T03:34:46.168Z,1012.57
2023-05-09T03:35:46.800Z,1012.53
2023-05-09T03:36:46.820Z,1012.58
2023-05-09T03:37:46.810Z,1012.53
2023-05-09T03:38:46.104Z,1012.60
2023-05-09T03:39:46.761Z,1012.64
2023-05-09T03:40:46.769Z,1012.59
2023-05-09T03:41:46.069Z,1012.63
2023-05-09T03:42:46.754Z,1012.64
2023-05-09T03:43:46.730Z,1012.64
2023-05-09T03:44:46.046Z,1012.60
2023-05-09T03:45:46.060Z,1012.57
2023-05-09T03:46:46.070Z,1012.54
2023-05-09T03:47:46.049Z,1012.55
2023-05-09T03:48:46.657Z,1012.54
2023-05-09T03:49:46.652Z,1012.58
2023-05-09T03:50:45.992Z,1012.53
2023-05-09T03:51:46.651Z,1012.52
2023-05-09T03:52:45.972Z,1012.53
2023-05-09T03:53:46.073Z,1012.54
2023-05-09T03:54:46.607Z,1012.53
2023-05-09T03:55:46.621Z,1012.54
2023-05-09T03:56:45.913Z,1012.45
2023-05-09T03:57:45.920Z,1012.46
2023-05-09T03:58:45.952Z,1012.46
2023-05-09T03:59:45.983Z,1012.45
2023-05-09T04:00:45.844Z,1012.48
2023-05-09T04:01:45.892Z,1012.43
2023-05-09T04:02:45.938Z,1012.44
2023-05-09T04:03:46.651Z,1012.43
2023-05-09T04:04:46.510Z,1012.44
2023-05-09T04:05:46.492Z,1012.42
2023-05-09T04:06:46.479Z,1012.42
2023-05-09T04:07:45.792Z,1012.42
2023-05-09T04:08:45.778Z,1012.39
2023-05-09T04:09:46.717Z,1012.40
2023-05-09T04:10:46.442Z,1012.33
2023-05-09T04:11:45.754Z,1012.35
2023-05-09T04:12:45.778Z,1012.40
2023-05-09T04:13:46.401Z,1012.39
2023-05-09T04:14:48.925Z,1012.38
2023-05-09T04:15:45.683Z,1012.40
2023-05-09T04:16:45.712Z,1012.37
2023-05-09T04:17:45.763Z,1012.36
2023-05-09T04:18:45.659Z,1012.38
2023-05-09T04:19:45.668Z,1012.35
2023-05-09T04:20:46.329Z,1012.34
2023-05-09T04:21:46.311Z,1012.35
2023-05-09T04:22:46.914Z,1012.33
2023-05-09T04:23:47.050Z,1012.33
2023-05-09T04:24:46.288Z,1012.33
2023-05-09T04:25:46.279Z,1012.34
2023-05-09T04:26:45.596Z,1012.36
2023-05-09T04:27:46.264Z,1012.34
2023-05-09T04:28:45.556Z,1012.35
2023-05-09T04:29:46.228Z,1012.41
2023-05-09T04:30:46.231Z,1012.43
2023-05-09T04:31:46.370Z,1012.42
2023-05-09T04:32:46.343Z,1012.43
2023-05-09T04:33:46.184Z,1012.38
2023-05-09T04:34:45.578Z,1012.44
2023-05-09T04:35:45.480Z,1012.43
2023-05-09T04:36:45.477Z,1012.48
2023-05-09T04:37:45.462Z,1012.47
2023-05-09T04:38:46.134Z,1012.42
2023-05-09T04:39:45.452Z,1012.44
2023-05-09T04:40:45.436Z,1012.40
2023-05-09T04:41:45.415Z,1012.40
2023-05-09T04:42:45.411Z,1012.39
2023-05-09T04:43:45.411Z,1012.42
2023-05-09T04:44:45.421Z,1012.46
2023-05-09T04:45:45.362Z,1012.43
2023-05-09T04:46:45.426Z,1012.42
2023-05-09T04:47:46.046Z,1012.45
2023-05-09T04:48:45.346Z,1012.48
2023-05-09T04:49:45.346Z,1012.41
2023-05-09T04:50:45.328Z,1012.40
2023-05-09T04:51:46.268Z,1012.37
2023-05-09T04:52:45.989Z,1012.32
2023-05-09T04:53:45.952Z,1012.35
2023-05-09T04:54:45.301Z,1012.33
2023-05-09T04:55:45.266Z,1012.31
2023-05-09T04:56:45.300Z,1012.29
2023-05-09T04:57:45.928Z,1012.28
2023-05-09T04:58:45.896Z,1012.24
2023-05-09T04:59:45.215Z,1012.19
2023-05-09T05:00:45.899Z,1012.21
2023-05-09T05:01:45.231Z,1012.19
2023-05-09T05:02:45.924Z,1012.17
2023-05-09T05:03:45.182Z,1012.14
2023-05-09T05:04:45.264Z,1012.13
2023-05-09T05:05:45.265Z,1012.10
2023-05-09T05:06:45.828Z,1012.14
2023-05-09T05:07:45.802Z,1012.15
2023-05-09T05:08:45.198Z,1012.16
2023-05-09T05:09:45.798Z,1012.12
2023-05-09T05:10:45.099Z,1012.13
2023-05-09T05:11:53.144Z,1012.15
2023-05-09T05:12:46.120Z,1012.17
2023-05-09T05:13:45.050Z,1012.17
2023-05-09T05:14:45.053Z,1012.13
2023-05-09T05:15:45.101Z,1012.13
2023-05-09T05:16:45.038Z,1012.09
2023-05-09T05:17:45.059Z,1012.11
2023-05-09T05:18:45.010Z,1012.08
2023-05-09T05:19:45.685Z,1012.11
2023-05-09T05:20:45.002Z,1012.07
2023-05-09T05:21:45.004Z,1012.08
2023-05-09T05:22:44.980Z,1012.10
2023-05-09T05:23:45.678Z,1012.10
2023-05-09T05:24:44.963Z,1012.06
2023-05-09T05:25:45.624Z,1012.07
2023-05-09T05:26:45.640Z,1012.04
2023-05-09T05:27:44.909Z,1011.99
2023-05-09T05:28:44.909Z,1012.01
2023-05-09T05:29:45.587Z,1012.05
2023-05-09T05:30:45.578Z,1012.06
2023-05-09T05:31:45.554Z,1012.02
2023-05-09T05:32:44.897Z,1012.02
2023-05-09T05:33:44.847Z,1012.00
2023-05-09T05:34:44.841Z,1012.03
2023-05-09T05:35:44.851Z,1012.00
2023-05-09T05:36:45.487Z,1011.99
2023-05-09T05:37:47.095Z,1012.02
2023-05-09T05:38:44.790Z,1011.98
2023-05-09T05:39:44.778Z,1011.98
2023-05-09T05:40:44.780Z,1011.99
2023-05-09T05:41:45.445Z,1011.99
2023-05-09T05:42:45.689Z,1011.97
2023-05-09T05:43:44.739Z,1011.93
2023-05-09T05:44:45.416Z,1011.91
2023-05-09T05:45:45.401Z,1011.92
2023-05-09T05:46:45.389Z,1011.89
2023-05-09T05:47:44.767Z,1011.86
2023-05-09T05:48:44.697Z,1011.83
2023-05-09T05:49:45.336Z,1011.80
2023-05-09T05:50:44.692Z,1011.83
2023-05-09T05:51:44.656Z,1011.87
2023-05-09T05:52:45.323Z,1011.83
2023-05-09T05:53:45.322Z,1011.88
2023-05-09T05:54:45.288Z,1011.91
2023-05-09T05:55:44.601Z,1011.91
2023-05-09T05:56:45.527Z,1011.91
2023-05-09T05:57:45.265Z,1011.88
2023-05-09T05:58:45.259Z,1011.90
2023-05-09T05:59:45.229Z,1011.90
2023-05-09T06:00:44.544Z,1011.87
2023-05-09T06:01:44.539Z,1011.85
2023-05-09T06:02:44.740Z,1011.84
2023-05-09T06:03:45.249Z,1011.84
2023-05-09T06:04:45.175Z,1011.74
2023-05-09T06:05:45.180Z,1011.78
2023-05-09T06:06:44.479Z,1011.72
2023-05-09T06:07:44.460Z,1011.76
2023-05-09T06:08:44.467Z,1011.73
2023-05-09T06:09:44.450Z,1011.73
2023-05-09T06:10:45.119Z,1011.73
2023-05-09T06:11:45.114Z,1011.76
2023-05-09T06:12:45.479Z,1011.78
2023-05-09T06:13:45.063Z,1011.75
2023-05-09T06:14:44.448Z,1011.75
2023-05-09T06:15:45.091Z,1011.73
2023-05-09T06:16:45.088Z,1011.71
2023-05-09T06:17:45.074Z,1011.68
2023-05-09T06:18:44.370Z,1011.68
2023-05-09T06:19:44.335Z,1011.68
2023-05-09T06:20:44.333Z,1011.72
2023-05-09T06:21:44.312Z,1011.58
2023-05-09T06:22:44.969Z,1011.64
2023-05-09T06:24:01.473Z,1011.63
2023-05-09T06:24:46.706Z,1011.60
2023-05-09T06:25:44.251Z,1011.57
2023-05-09T06:26:44.261Z,1011.58
2023-05-09T06:27:44.297Z,1011.50
2023-05-09T06:28:44.246Z,1011.57
2023-05-09T06:29:44.221Z,1011.58
2023-05-09T06:30:44.905Z,1011.56
2023-05-09T06:31:44.912Z,1011.57
2023-05-09T06:32:44.928Z,1011.55
2023-05-09T06:33:44.879Z,1011.54
2023-05-09T06:34:44.190Z,1011.55
2023-05-09T06:35:44.855Z,1011.51
2023-05-09T06:36:44.817Z,1011.56
2023-05-09T06:37:47.003Z,1011.54
2023-05-09T06:38:44.834Z,1011.51
2023-05-09T06:39:44.124Z,1011.51
2023-05-09T06:40:44.106Z,1011.50
2023-05-09T06:41:45.056Z,1011.51
2023-05-09T06:42:44.079Z,1011.52
2023-05-09T06:43:44.083Z,1011.51
2023-05-09T06:44:44.763Z,1011.52
2023-05-09T06:45:44.720Z,1011.49
2023-05-09T06:46:45.104Z,1011.49
2023-05-09T06:47:46.027Z,1011.44
2023-05-09T06:48:44.705Z,1011.41
2023-05-09T06:49:45.979Z,1011.41
2023-05-09T06:50:44.951Z,1011.42
2023-05-09T06:51:44.676Z,1011.43
2023-05-09T06:52:44.923Z,1011.42
2023-05-09T06:53:44.925Z,1011.42
2023-05-09T06:54:43.957Z,1011.42
2023-05-09T06:55:44.612Z,1011.39
2023-05-09T06:56:44.910Z,1011.39
2023-05-09T06:57:44.879Z,1011.32
2023-05-09T06:58:44.934Z,1011.30
2023-05-09T06:59:44.876Z,1011.29
2023-05-09T07:00:44.850Z,1011.29
2023-05-09T07:01:44.655Z,1011.28
2023-05-09T07:02:44.840Z,1011.26
2023-05-09T07:03:44.540Z,1011.24
2023-05-09T07:04:44.871Z,1011.19
2023-05-09T07:05:44.785Z,1011.17
2023-05-09T07:06:44.515Z,1011.13
2023-05-09T07:07:44.787Z,1011.16
2023-05-09T07:08:44.737Z,1011.14
2023-05-09T07:09:44.747Z,1011.10
2023-05-09T07:10:44.460Z,1011.06
2023-05-09T07:11:43.766Z,1011.08
2023-05-09T07:12:43.767Z,1011.10
2023-05-09T07:13:44.428Z,1011.05
2023-05-09T07:14:44.402Z,1011.04
2023-05-09T07:15:44.641Z,1011.08
2023-05-09T07:16:43.769Z,1011.00
2023-05-09T07:17:44.835Z,1010.99
2023-05-09T07:18:44.653Z,1010.96
2023-05-09T07:19:44.662Z,1010.96
2023-05-09T07:20:44.628Z,1010.98
2023-05-09T07:21:44.348Z,1010.96
2023-05-09T07:22:45.649Z,1010.99
2023-05-09T07:23:44.614Z,1011.03
2023-05-09T07:24:44.318Z,1011.04
2023-05-09T07:25:44.312Z,1010.99
2023-05-09T07:26:44.294Z,1011.05
2023-05-09T07:27:44.273Z,1011.07
2023-05-09T07:28:44.577Z,1011.05
2023-05-09T07:29:44.549Z,1011.00
2023-05-09T07:30:44.514Z,1011.00
2023-05-09T07:31:44.313Z,1010.95
2023-05-09T07:32:44.551Z,1010.90
2023-05-09T07:33:44.225Z,1010.86
2023-05-09T07:34:44.206Z,1010.91
2023-05-09T07:35:44.196Z,1010.90
2023-05-09T07:36:44.476Z,1010.87
2023-05-09T07:37:44.162Z,1010.88
2023-05-09T07:38:44.165Z,1010.86
2023-05-09T07:39:44.410Z,1010.84
2023-05-09T07:40:44.139Z,1010.89
2023-05-09T07:41:44.426Z,1010.86
2023-05-09T07:42:44.092Z,1010.82
2023-05-09T07:43:44.119Z,1010.79
2023-05-09T07:44:44.356Z,1010.74
2023-05-09T07:45:44.112Z,1010.82
2023-05-09T07:46:44.338Z,1010.76
2023-05-09T07:47:44.133Z,1010.75
2023-05-09T07:48:44.327Z,1010.75
2023-05-09T07:49:44.036Z,1010.70
2023-05-09T07:50:44.304Z,1010.74
2023-05-09T07:51:44.285Z,1010.66
2023-05-09T07:52:43.997Z,1010.68
2023-05-09T07:53:43.990Z,1010.65
2023-05-09T07:54:43.979Z,1010.61
2023-05-09T07:55:44.251Z,1010.55
2023-05-09T07:56:44.208Z,1010.63
2023-05-09T07:57:43.945Z,1010.61
2023-05-09T07:58:43.951Z,1010.63
2023-05-09T07:59:43.937Z,1010.55
2023-05-09T08:00:43.896Z,1010.53
2023-05-09T08:01:44.170Z,1010.56
2023-05-09T08:02:44.051Z,1010.50
2023-05-09T08:03:44.018Z,1010.50
2023-05-09T08:04:44.140Z,1010.48
2023-05-09T08:05:44.140Z,1010.55
2023-05-09T08:06:44.104Z,1010.54
2023-05-09T08:07:44.107Z,1010.54
2023-05-09T08:08:43.823Z,1010.56
2023-05-09T08:09:44.101Z,1010.57
2023-05-09T08:10:43.781Z,1010.49
2023-05-09T08:11:44.075Z,1010.45
2023-05-09T08:12:44.071Z,1010.44
2023-05-09T08:13:43.770Z,1010.49
2023-05-09T08:14:44.051Z,1010.45
2023-05-09T08:15:43.768Z,1010.39
2023-05-09T08:16:44.007Z,1010.40
2023-05-09T08:17:43.774Z,1010.40
2023-05-09T08:18:43.719Z,1010.41
2023-05-09T08:19:43.690Z,1010.35
2023-05-09T08:20:43.999Z,1010.42
2023-05-09T08:21:42.997Z,1010.36
2023-05-09T08:22:43.936Z,1010.35
2023-05-09T08:23:42.974Z,1010.37
2023-05-09T08:24:43.635Z,1010.38
2023-05-09T08:25:43.646Z,1010.35
2023-05-09T08:26:42.969Z,1010.31
2023-05-09T08:27:42.968Z,1010.29
2023-05-09T08:28:43.589Z,1010.27
2023-05-09T08:29:43.889Z,1010.25
2023-05-09T08:30:43.836Z,1010.24
2023-05-09T08:31:43.617Z,1010.23
2023-05-09T08:32:43.573Z,1010.19
2023-05-09T08:33:43.551Z,1010.24
2023-05-09T08:34:43.541Z,1010.21
2023-05-09T08:35:43.795Z,1010.23
2023-05-09T08:36:43.519Z,1010.25
2023-05-09T08:37:43.492Z,1010.23
2023-05-09T08:38:43.786Z,1010.21
2023-05-09T08:39:43.746Z,1010.19
2023-05-09T08:40:43.739Z,1010.23
2023-05-09T08:41:43.466Z,1010.20
2023-05-09T08:42:43.742Z,1010.20
2023-05-09T08:43:43.443Z,1010.15
2023-05-09T08:44:43.707Z,1010.16
2023-05-09T08:45:43.678Z,1010.14
2023-05-09T08:46:43.740Z,1010.14
2023-05-09T08:47:43.688Z,1010.13
2023-05-09T08:48:43.621Z,1010.12
2023-05-09T08:49:43.383Z,1010.15
2023-05-09T08:50:43.625Z,1010.14
2023-05-09T08:51:43.354Z,1010.10
2023-05-09T08:52:43.340Z,1010.10
2023-05-09T08:53:43.337Z,1010.14
2023-05-09T08:54:42.646Z,1010.14
2023-05-09T08:55:42.628Z,1010.09
2023-05-09T08:56:42.636Z,1010.04
2023-05-09T08:57:43.275Z,1010.10
2023-05-09T08:58:43.279Z,1010.11
2023-05-09T08:59:43.280Z,1010.09
2023-05-09T09:00:43.257Z,1010.09
2023-05-09T09:01:43.338Z,1010.08
2023-05-09T09:02:43.260Z,1010.10
2023-05-09T09:03:43.222Z,1010.07
2023-05-09T09:04:43.266Z,1010.03
2023-05-09T09:05:43.245Z,1010.02
2023-05-09T09:06:43.172Z,1009.98
2023-05-09T09:07:42.508Z,1010.01
2023-05-09T09:08:43.185Z,1010.04
2023-05-09T09:09:43.162Z,1009.95
2023-05-09T09:10:43.134Z,1009.99
2023-05-09T09:11:43.134Z,1009.98
2023-05-09T09:12:42.445Z,1009.97
2023-05-09T09:13:43.118Z,1009.96
2023-05-09T09:14:43.112Z,1009.97
2023-05-09T09:15:43.083Z,1009.98
2023-05-09T09:16:43.175Z,1009.95
2023-05-09T09:17:43.100Z,1009.97
2023-05-09T09:18:43.064Z,1009.94
2023-05-09T09:19:43.065Z,1009.90
2023-05-09T09:20:42.404Z,1009.93
2023-05-09T09:21:43.036Z,1009.88
2023-05-09T09:22:43.027Z,1009.86
2023-05-09T09:23:43.025Z,1009.89
2023-05-09T09:24:42.328Z,1009.85
2023-05-09T09:25:42.331Z,1009.77
2023-05-09T09:26:42.978Z,1009.83
2023-05-09T09:27:42.973Z,1009.80
2023-05-09T09:28:42.978Z,1009.77
2023-05-09T09:29:42.924Z,1009.79
2023-05-09T09:30:42.931Z,1009.79
2023-05-09T09:31:42.952Z,1009.78
2023-05-09T09:32:42.271Z,1009.72
2023-05-09T09:33:42.914Z,1009.68
2023-05-09T09:34:42.871Z,1009.70
2023-05-09T09:35:42.880Z,1009.68
2023-05-09T09:36:42.192Z,1009.65
2023-05-09T09:37:42.866Z,1009.63
2023-05-09T09:38:42.841Z,1009.57
2023-05-09T09:39:42.813Z,1009.57
2023-05-09T09:40:42.145Z,1009.55
2023-05-09T09:41:42.136Z,1009.55
2023-05-09T09:42:42.806Z,1009.50
2023-05-09T09:43:42.774Z,1009.52
2023-05-09T09:44:42.782Z,1009.48
2023-05-09T09:45:42.863Z,1009.47
2023-05-09T09:46:42.755Z,1009.44
2023-05-09T09:47:42.114Z,1009.44
2023-05-09T09:48:42.717Z,1009.47
2023-05-09T09:49:43.095Z,1009.48
2023-05-09T09:50:42.713Z,1009.41
2023-05-09T09:51:42.036Z,1009.42
2023-05-09T09:52:42.676Z,1009.42
2023-05-09T09:53:42.663Z,1009.41
2023-05-09T09:54:42.696Z,1009.37
2023-05-09T09:55:44.179Z,1009.37
2023-05-09T09:56:42.661Z,1009.34
2023-05-09T09:57:42.635Z,1009.35
2023-05-09T09:58:41.939Z,1009.33
2023-05-09T09:59:42.620Z,1009.31
2023-05-09T10:00:42.604Z,1009.31
2023-05-09T10:01:42.107Z,1009.30
2023-05-09T10:02:42.573Z,1009.27
2023-05-09T10:03:42.609Z,1009.26
2023-05-09T10:04:41.881Z,1009.32
2023-05-09T10:05:41.906Z,1009.27
2023-05-09T10:06:41.882Z,1009.23
2023-05-09T10:07:42.508Z,1009.21
2023-05-09T10:08:42.526Z,1009.21
2023-05-09T10:09:42.504Z,1009.17
2023-05-09T10:10:42.493Z,1009.19
2023-05-09T10:11:41.823Z,1009.16
2023-05-09T10:12:42.504Z,1009.14
2023-05-09T10:13:42.544Z,1009.13
2023-05-09T10:14:41.780Z,1009.09
2023-05-09T10:15:52.931Z,1009.05
2023-05-09T10:16:44.754Z,1009.02
2023-05-09T10:17:42.644Z,1009.02
2023-05-09T10:18:42.757Z,1008.97
2023-05-09T10:19:42.405Z,1008.98
2023-05-09T10:20:42.367Z,1009.03
2023-05-09T10:21:42.353Z,1008.98
2023-05-09T10:22:42.369Z,1008.96
2023-05-09T10:23:42.352Z,1009.01
2023-05-09T10:24:41.655Z,1009.02
2023-05-09T10:25:41.684Z,1008.97
2023-05-09T10:26:42.316Z,1008.95
2023-05-09T10:27:42.307Z,1008.95
2023-05-09T10:28:42.341Z,1008.91
2023-05-09T10:29:42.298Z,1008.98
2023-05-09T10:30:42.252Z,1008.91
2023-05-09T10:31:41.593Z,1008.95
2023-05-09T10:32:41.567Z,1008.97
2023-05-09T10:33:42.243Z,1008.92
2023-05-09T10:34:42.215Z,1008.98
2023-05-09T10:35:42.202Z,1008.91
2023-05-09T10:36:42.208Z,1008.94
2023-05-09T10:37:41.525Z,1008.90
2023-05-09T10:38:41.512Z,1008.92
2023-05-09T10:39:42.161Z,1008.88
2023-05-09T10:40:41.481Z,1008.87
2023-05-09T10:41:42.151Z,1008.81
2023-05-09T10:42:42.169Z,1008.84
2023-05-09T10:43:42.110Z,1008.76
2023-05-09T10:44:42.104Z,1008.69
2023-05-09T10:45:41.432Z,1008.69
2023-05-09T10:46:42.175Z,1008.65
2023-05-09T10:47:41.427Z,1008.67
2023-05-09T10:48:42.058Z,1008.63
2023-05-09T10:49:42.065Z,1008.59
2023-05-09T10:50:41.415Z,1008.56
2023-05-09T10:51:42.038Z,1008.58
2023-05-09T10:52:41.339Z,1008.53
2023-05-09T10:53:42.010Z,1008.53
2023-05-09T10:54:41.339Z,1008.48
2023-05-09T10:55:41.311Z,1008.48
2023-05-09T10:56:41.294Z,1008.48
2023-05-09T10:57:41.954Z,1008.40
2023-05-09T10:58:41.317Z,1008.40
2023-05-09T10:59:41.962Z,1008.41
2023-05-09T11:00:41.945Z,1008.44
2023-05-09T11:01:41.274Z,1008.43
2023-05-09T11:02:41.968Z,1008.43
2023-05-09T11:03:41.960Z,1008.33
2023-05-09T11:04:41.933Z,1008.43
2023-05-09T11:05:41.901Z,1008.41
2023-05-09T11:06:41.201Z,1008.36
2023-05-09T11:07:41.851Z,1008.34
2023-05-09T11:08:41.223Z,1008.23
2023-05-09T11:09:41.183Z,1008.21
2023-05-09T11:10:41.852Z,1008.28
2023-05-09T11:11:41.812Z,1008.28
2023-05-09T11:12:41.843Z,1008.29
2023-05-09T11:13:41.820Z,1008.27
2023-05-09T11:14:41.108Z,1008.26
2023-05-09T11:15:41.788Z,1008.16
2023-05-09T11:16:41.126Z,1008.19
2023-05-09T11:17:41.817Z,1008.16
2023-05-09T11:18:41.077Z,1008.17
2023-05-09T11:19:41.066Z,1008.14
2023-05-09T11:20:41.057Z,1008.18
2023-05-09T11:21:41.712Z,1008.03
2023-05-09T11:22:41.038Z,1008.12
2023-05-09T11:23:41.970Z,1008.14
2023-05-09T11:24:41.685Z,1008.21
2023-05-09T11:25:41.014Z,1008.07
2023-05-09T11:26:41.015Z,1007.99
2023-05-09T11:27:41.662Z,1008.04
2023-05-09T11:28:41.653Z,1008.08
2023-05-09T11:29:41.046Z,1008.04
2023-05-09T11:30:41.605Z,1007.99
2023-05-09T11:31:41.654Z,1008.08
2023-05-09T11:32:40.944Z,1008.02
2023-05-09T11:33:40.950Z,1007.92
2023-05-09T11:34:40.899Z,1007.92
2023-05-09T11:35:41.576Z,1007.86
2023-05-09T11:36:40.869Z,1007.95
2023-05-09T11:37:41.573Z,1007.82
2023-05-09T11:38:41.538Z,1007.86
2023-05-09T11:39:41.508Z,1007.85
2023-05-09T11:40:41.494Z,1007.85
2023-05-09T11:41:41.508Z,1007.80
2023-05-09T11:42:40.810Z,1007.72
2023-05-09T11:43:40.804Z,1007.73
2023-05-09T11:44:40.801Z,1007.67
2023-05-09T11:45:40.804Z,1007.70
2023-05-09T11:46:41.454Z,1007.70
2023-05-09T11:47:40.791Z,1007.76
2023-05-09T11:48:40.744Z,1007.72
2023-05-09T11:49:40.756Z,1007.72
2023-05-09T11:50:41.416Z,1007.70
2023-05-09T11:51:41.401Z,1007.68
2023-05-09T11:52:40.708Z,1007.67
2023-05-09T11:53:41.362Z,1007.68
2023-05-09T11:54:41.354Z,1007.61
2023-05-09T11:55:40.667Z,1007.64
2023-05-09T11:56:41.354Z,1007.63
2023-05-09T11:57:40.647Z,1007.65
2023-05-09T11:58:40.656Z,1007.63
2023-05-09T11:59:41.317Z,1007.61
2023-05-09T12:00:40.611Z,1007.57
2023-05-09T12:01:41.301Z,1007.54
2023-05-09T12:02:40.683Z,1007.51
2023-05-09T12:03:41.349Z,1007.49
2023-05-09T12:04:40.749Z,1007.52
2023-05-09T12:05:40.559Z,1007.53